Aviation Digital Data Service (ADDS)

Output produced by METARs form (1957 UTC 21 September 2021)
found at http://aviationweather.gov/metar/data/
 
METAR text: EPRZ 211930Z 26008KT CAVOK 08/07 Q1023
Conditions at: EPRZ (RZESZOW/JASIONKA, PL) observed 1930 UTC 21 September 2021
Temperature: 8.0°C (46°F)
Dewpoint: 7.0°C (45°F) [RH = 93%]
Pressure (altimeter): 30.21 inches Hg (1023.0 mb)
Winds: from the W (260 degrees) at 9 MPH (8 knots; 4.1 m/s)
Visibility: 6 or more miles (10+ km)
Ceiling: ceiling and visibility are OK
Clouds: unknown
Weather: no significant weather observed at this time

METAR text: EPRZ 211900Z 26007KT CAVOK 08/06 Q1023
Conditions at: EPRZ (RZESZOW/JASIONKA, PL) observed 1900 UTC 21 September 2021
Temperature: 8.0°C (46°F)
Dewpoint: 6.0°C (43°F) [RH = 87%]
Pressure (altimeter): 30.21 inches Hg (1023.0 mb)
Winds: from the W (260 degrees) at 8 MPH (7 knots; 3.6 m/s)
Visibility: 6 or more miles (10+ km)
Ceiling: ceiling and visibility are OK
Clouds: unknown
Weather: no significant weather observed at this time

Forecast for: EPRZ (RZESZOW/JASIONKA, PL)
Text: TAF EPRZ 211730Z 2118/2218 30006KT 9999 SCT033
Forecast period: 1800 to 2200 UTC 21 September 2021
Forecast type: FROM: standard forecast or significant change
Winds: from the WNW (300 degrees) at 7 MPH (6 knots; 3.1 m/s)
Visibility: 6 or more miles (10+ km)
Ceiling: at least 12,000 feet AGL
Clouds: scattered clouds at 3300 feet AGL
Weather: no significant weather forecast for this period
Text: BECMG 2122/2124 BKN013
Forecast period: 2200 UTC 21 September 2021 to 0900 UTC 22 September 2021
Forecast type: BECOMING: Conditions expected to become as follows by 0000 UTC 22 September 2021
Winds: from the WNW (300 degrees) at 7 MPH (6 knots; 3.1 m/s)
Visibility: 6 or more miles (10+ km)
Ceiling: 1300 feet AGL
Clouds: broken clouds at 1300 feet AGL
Weather: no significant weather forecast for this period
Text: TEMPO 2200/2209 4000 RA BR
Forecast period: 0000 to 0900 UTC 22 September 2021
Forecast type: TEMPORARY: The following changes expected for less than half the time period
Visibility: 2.49 miles (4.01 km)
Ceiling: unknown
Clouds: missing
Weather: RA BR  (moderate rain, mist)
Text: PROB30 2202/2208 BKN008 BKN012
Forecast period: 0200 to 0800 UTC 22 September 2021
Forecast type: PROBABLE: 30 percent likelihood of the following during this time
Visibility: missing
Ceiling: 800 feet AGL
Clouds: broken clouds at 800 feet AGL
broken clouds at 1200 feet AGL
Weather: no significant weather forecast for this period
Text: BECMG 2209/2211 36010KT BKN020
Forecast period: 0900 to 1800 UTC 22 September 2021
Forecast type: BECOMING: Conditions expected to become as follows by 1100 UTC 22 September 2021
Winds: from the N (360 degrees) at 12 MPH (10 knots; 5.1 m/s)
Visibility: 6 or more miles (10+ km)
Ceiling: 2000 feet AGL
Clouds: broken clouds at 2000 feet AGL
Weather: no significant weather forecast for this period